Terminal Aerodrome Forecast
Issued by NWS

Home | Current Version | Previous Version | Graphics & Text | Print | Product List | Glossary On
Versions: 1 2 3 4 5 6 7 8 9 10 11 12 13 14 15
000
FTUS41 KCLE 270523
TAFFDY
TAF
KFDY 270523Z 2706/2806 20008KT P6SM BKN200
      TEMPO 2709/2713 4SM BR
     FM271400 20006KT P6SM SCT050 BKN250=

USA.gov is the U.S. government's official web portal to all federal, state and local government web resources and services.